AirNav   Pilot Hours Calculator
 
 890 users online  

PS24 Brownsville General Hospital Heliport
Brownsville, Pennsylvania, USA

GOING TO BROWNSVILLE?


FAA INFORMATION EFFECTIVE 07 NOVEMBER 2019

Location

FAA Identifier: PS24
Lat/Long: 40-00-13.2680N 079-52-32.1660W
40-00.221133N 079-52.536100W
40.0036856,-79.8756017
(estimated)
Elevation: 1199 ft. / 365 m (estimated)
Variation: 09W (2000)
From city: 1 mile NW of BROWNSVILLE, PA
Time zone: UTC -5 (UTC -4 during Daylight Saving Time)
Zip code: 15417

Heliport Operations

Heliport use: Private use, MEDICAL USE.
Activation date: 11/1983
Control tower: no
ARTCC: CLEVELAND CENTER
FSS: ALTOONA FLIGHT SERVICE STATION
NOTAMs facility: FDC (NOTAM-D service not available)
Attendance: CONTINUOUS
Wind indicator: yes
Segmented circle: no

Heliport Communications

CLARKSBURG APPROACH: 126.95
CLARKSBURG DEPARTURE: 126.95
WX AWOS-3 at VVS (10 nm E): 133.325 (724-626-8745)
WX AWOS-3 at FWQ (13 nm N): 118.475 (724-379-5815)
  • APCH/DEP SVC PRVDD BY NORTH CENTRAL WEST VIRGINIA ATCT (CKB) 126.950/239.300.

Nearby radio navigation aids

VOR radial/distance  VOR name  Freq  Var
AGCr164/18.2ALLEGHENY VOR/DME110.0009W
IHDr280/23.8INDIAN HEAD VORTAC108.2006W
MGWr004/26.8MORGANTOWN VOR/DME111.6005W
HLGr123/35.3WHEELING VOR/DME112.2007W

 
NDB name  Hdg/Dist  Freq  Var  ID
CAMOR328/9.429908WVV ...- ...-

Heliport Services

Runway Information

Helipad H1

Dimensions: 50 x 30 ft. / 15 x 9 m
Surface: asphalt, in fair condition
Latitude: 40-00.221133N
Longitude: 079-52.536100W
Elevation: 1199.0 ft.
Traffic pattern: leftleft
Markings: none, in fair condition

Heliport Ownership and Management from official FAA records

Ownership: Privately-owned
Owner: BROWNSVILLE GENERAL HOSPITAL
125 SIMPSON ROAD
BROWNSVILLE, PA 15414
Phone 412-785-7200
Manager: DON WILSON
125 SIMPSON ROAD
BROWNSVILLE, PA 15414
Phone 412-785-7200

Additional Remarks

A52-H1 15' STREET LIGHT 60' WEST; 35' UTILITY POLES 250' N & 290' WEST; 25' BLDG 171' SOUTH.
FOR CD CTC CLARKSBURG APCH AT 304-842-2011, WHEN APCH CLSD CTC CLEVELAND ARTCC AT 440-774-0490.

Instrument Procedures

There are no published instrument procedures at PS24.

Some nearby airports with instrument procedures:

KVVS - Joseph A Hardy Connellsville Airport (10 nm E)
KFWQ - Rostraver Airport (13 nm N)
KWAY - Greene County Airport (13 nm SW)
G05 - Finleyville Airpark (16 nm NW)
KAFJ - Washington County Airport (21 nm NW)
 
Loc | Ops | Rwys | IFR | FBO | Links
Com | Nav | Svcs | Stats | Notes
Area around PS24 (Brownsville General Hospital Heliport)
 
Road maps at: MapQuest Bing Google
 
Aerial photo
No photo
 
Sectional chart

 
Airport distance calculator
Flying to Brownsville General Hospital Heliport? Find the distance to fly.

From to PS24

Sunrise and sunset
Times for 19-Nov-2019
 Local
(UTC-5)
 Zulu
(UTC)
Morning civil twilight06:4111:41
Sunrise07:1012:10
Sunset17:0022:00
Evening civil twilight17:2922:29

Current date and time
Zulu (UTC)  20-Nov-2019 02:23:56
Local (UTC-5)  19-Nov-2019 21:23:56
 
METAR
KP53 
13nm N 
200156Z AUTO 21003KT 01/00 A2989 RMK AO1 SLP128 T00060000
KAFJ 
19nm W 
200156Z AUTO 00000KT 9SM SCT020 OVC035 04/02 A2993 RMK AO2 SLP141 T00440022 PWINO
KAGC 
21nm N 
200153Z 00000KT 1 3/4SM BR BKN025 OVC031 04/03 A2989 RMK AO2 SLP134 T00390033
KMGW 
21nm S 
200153Z 00000KT 5SM BR FEW015 SCT032 OVC042 04/03 A2991 RMK AO2 SLP136 T00440033
TAF
KAGC 
21nm N 
192108Z 1921/2018 23002KT 3SM BR OVC015 FM201000 29004KT 5SM BR OVC007 FM201500 30006KT P6SM OVC015
KMGW 
21nm S 
192157Z 1922/2018 21002KT 4SM BR OVC015 FM192300 VRB03KT P6SM OVC035 FM200400 28002KT 6SM BR BKN025
NOTAMs
Click for the latest NOTAMs
NOTAMs are issued by the DoD/FAA and will open in a separate window not controlled by AirNav.

 

 
 

Would you like to see your business listed on this page?

 If your business provides an interesting product or service to pilots, flight crews, aircraft, or users of the Brownsville General Hospital Heliport, you should consider listing it here.  To start the listing process, click on the button below
 
Add a business
 

Other Pages about Brownsville General Hospital Heliport

Update a link
 
Copyright © AirNav, LLC. All rights reserved. Privacy Policy  Contact